createdAt,value
2018-09-23T00:01:37.889Z,2.12
2018-09-23T00:04:05.022Z,2.45
2018-09-23T00:06:32.108Z,2.20
2018-09-23T00:08:59.426Z,1.40
2018-09-23T00:11:26.544Z,1.95
2018-09-23T00:13:53.622Z,2.70
2018-09-23T00:16:20.722Z,1.92
2018-09-23T00:18:47.922Z,1.92
2018-09-23T00:21:15.009Z,1.65
2018-09-23T00:23:42.146Z,2.20
2018-09-23T00:26:09.254Z,3.75
2018-09-23T00:28:36.456Z,1.92
2018-09-23T00:31:03.566Z,1.85
2018-09-23T00:33:30.779Z,2.65
2018-09-23T00:35:58.648Z,2.58
2018-09-23T00:38:25.900Z,1.98
2018-09-23T00:40:52.958Z,1.65
2018-09-23T00:43:20.074Z,1.42
2018-09-23T00:45:47.164Z,1.95
2018-09-23T00:48:14.374Z,2.15
2018-09-23T00:50:41.578Z,2.10
2018-09-23T00:53:08.693Z,1.40
2018-09-23T00:55:35.796Z,1.75
2018-09-23T00:58:02.951Z,2.02
2018-09-23T01:00:30.089Z,1.92
2018-09-23T01:02:57.170Z,1.27
2018-09-23T01:05:24.441Z,1.60
2018-09-23T01:07:51.635Z,2.58
2018-09-23T01:10:18.831Z,1.60
2018-09-23T01:12:46.158Z,1.77
2018-09-23T01:15:15.838Z,1.65
2018-09-23T01:17:42.996Z,1.75
2018-09-23T01:20:10.120Z,1.27
2018-09-23T01:22:37.244Z,1.70
2018-09-23T01:25:04.322Z,2.45
2018-09-23T01:27:31.500Z,1.75
2018-09-23T01:29:58.682Z,1.30
2018-09-23T01:32:25.840Z,1.87
2018-09-23T01:34:52.930Z,2.15
2018-09-23T01:37:20.034Z,1.57
2018-09-23T01:39:47.153Z,1.85
2018-09-23T01:42:14.329Z,1.87
2018-09-23T01:44:41.428Z,1.62
2018-09-23T01:47:08.571Z,2.30
2018-09-23T01:49:35.655Z,2.83
2018-09-23T01:52:02.852Z,2.30
2018-09-23T01:54:29.935Z,2.50
2018-09-23T01:56:57.048Z,1.60
2018-09-23T01:59:24.210Z,1.50
2018-09-23T02:01:51.304Z,2.85
2018-09-23T02:04:18.429Z,1.98
2018-09-23T02:06:45.535Z,2.45
2018-09-23T02:09:12.752Z,2.12
2018-09-23T02:11:40.068Z,2.52
2018-09-23T02:14:07.242Z,2.10
2018-09-23T02:16:34.372Z,1.50
2018-09-23T02:19:01.565Z,1.90
2018-09-23T02:21:28.708Z,2.22
2018-09-23T02:23:55.857Z,1.87
2018-09-23T02:26:23.097Z,2.67
2018-09-23T02:28:50.312Z,2.72
2018-09-23T02:31:17.692Z,2.72
2018-09-23T02:33:44.830Z,2.20
2018-09-23T02:36:11.939Z,1.75
2018-09-23T02:38:39.064Z,2.02
2018-09-23T02:41:07.296Z,2.42
2018-09-23T02:43:34.425Z,2.40
2018-09-23T02:46:01.591Z,2.05
2018-09-23T02:48:28.814Z,3.02
2018-09-23T02:50:56.714Z,2.60
2018-09-23T02:53:23.847Z,2.87
2018-09-23T02:55:50.975Z,2.95
2018-09-23T02:58:18.131Z,1.90
2018-09-23T03:00:45.304Z,2.80
2018-09-23T03:03:12.486Z,2.98
2018-09-23T03:05:39.668Z,3.00
2018-09-23T03:08:07.420Z,2.22
2018-09-23T03:10:34.510Z,2.20
2018-09-23T03:13:01.592Z,1.90
2018-09-23T03:15:28.689Z,1.67
2018-09-23T03:17:55.982Z,2.25
2018-09-23T03:20:23.142Z,3.60
2018-09-23T03:22:50.215Z,2.60
2018-09-23T03:25:17.338Z,2.50
2018-09-23T03:27:44.536Z,1.82
2018-09-23T03:30:11.670Z,2.27
2018-09-23T03:32:38.753Z,2.40
2018-09-23T03:35:05.940Z,2.10
2018-09-23T03:37:33.118Z,1.82
2018-09-23T03:40:00.234Z,1.15
2018-09-23T03:42:27.411Z,2.05
2018-09-23T03:44:54.558Z,2.10
2018-09-23T03:47:21.703Z,1.90
2018-09-23T03:49:48.854Z,1.65
2018-09-23T03:52:15.961Z,2.70
2018-09-23T03:54:43.175Z,3.05
2018-09-23T03:57:10.303Z,2.40
2018-09-23T03:59:37.428Z,1.90
2018-09-23T04:02:04.494Z,1.65
2018-09-23T04:04:31.614Z,2.00
2018-09-23T04:06:59.402Z,2.50
2018-09-23T04:09:26.468Z,1.57
2018-09-23T04:11:53.605Z,2.20
2018-09-23T04:14:20.807Z,2.15
2018-09-23T04:16:47.910Z,2.75
2018-09-23T04:19:15.051Z,2.25
2018-09-23T04:21:42.205Z,1.77
2018-09-23T04:24:09.318Z,1.85
2018-09-23T04:26:36.459Z,1.85
2018-09-23T04:29:03.647Z,2.02
2018-09-23T04:31:30.741Z,2.67
2018-09-23T04:33:57.892Z,1.55
2018-09-23T04:36:25.040Z,2.50
2018-09-23T04:38:52.394Z,1.37
2018-09-23T04:41:19.520Z,2.25
2018-09-23T04:43:46.615Z,2.15
2018-09-23T04:46:13.683Z,2.00
2018-09-23T04:48:40.865Z,2.30
2018-09-23T04:51:07.985Z,2.08
2018-09-23T04:53:35.102Z,2.08
2018-09-23T04:56:02.284Z,2.45
2018-09-23T04:58:29.680Z,1.50
2018-09-23T05:00:56.783Z,2.30
2018-09-23T05:03:23.859Z,2.33
2018-09-23T05:05:50.978Z,3.58
2018-09-23T05:08:18.124Z,2.22
2018-09-23T05:10:45.255Z,2.60
2018-09-23T05:13:12.704Z,1.40
2018-09-23T05:15:39.766Z,2.75
2018-09-23T05:18:06.936Z,3.08
2018-09-23T05:20:34.080Z,2.20
2018-09-23T05:23:01.199Z,1.92
2018-09-23T05:25:28.329Z,1.62
2018-09-23T05:27:55.509Z,1.70
2018-09-23T05:30:22.598Z,1.55
2018-09-23T05:32:49.673Z,2.25
2018-09-23T05:35:16.872Z,1.95
2018-09-23T05:37:44.008Z,2.42
2018-09-23T05:40:11.108Z,2.08
2018-09-23T05:42:38.196Z,2.37
2018-09-23T05:45:05.749Z,1.92
2018-09-23T05:47:34.273Z,1.70
2018-09-23T05:50:01.368Z,1.90
2018-09-23T05:52:28.509Z,2.15
2018-09-23T05:54:55.721Z,1.67
2018-09-23T05:57:22.946Z,2.08
2018-09-23T05:59:50.006Z,2.00
2018-09-23T06:02:17.080Z,1.85
2018-09-23T06:04:44.182Z,2.05
2018-09-23T06:07:11.381Z,1.65
2018-09-23T06:09:39.546Z,1.90
2018-09-23T06:12:06.656Z,1.98
2018-09-23T06:14:33.888Z,1.95
2018-09-23T06:17:01.080Z,3.12
2018-09-23T06:19:28.202Z,1.52
2018-09-23T06:21:55.344Z,1.67
2018-09-23T06:24:22.559Z,1.75
2018-09-23T06:26:49.675Z,1.62
2018-09-23T06:29:17.052Z,2.20
2018-09-23T06:31:44.157Z,2.30
2018-09-23T06:34:11.313Z,1.75
2018-09-23T06:36:38.354Z,1.30
2018-09-23T06:39:06.270Z,1.95
2018-09-23T06:41:33.394Z,1.82
2018-09-23T06:44:00.507Z,2.42
2018-09-23T06:46:27.706Z,1.90
2018-09-23T06:48:54.907Z,1.62
2018-09-23T06:51:22.078Z,1.60
2018-09-23T06:53:49.276Z,1.27
2018-09-23T06:56:16.400Z,2.83
2018-09-23T06:58:43.562Z,2.50
2018-09-23T07:01:10.666Z,1.57
2018-09-23T07:03:37.762Z,1.70
2018-09-23T07:06:05.053Z,1.80
2018-09-23T07:08:32.210Z,1.40
2018-09-23T07:10:59.355Z,1.82
2018-09-23T07:13:26.544Z,1.42
2018-09-23T07:15:57.981Z,1.05
2018-09-23T07:18:25.372Z,1.75
2018-09-23T07:20:52.530Z,1.50
2018-09-23T07:23:19.907Z,1.90
2018-09-23T07:25:49.173Z,1.10
2018-09-23T07:28:18.144Z,1.45
2018-09-23T07:30:46.315Z,1.72
2018-09-23T07:33:14.993Z,1.95
2018-09-23T07:35:43.604Z,1.40
2018-09-23T07:38:10.838Z,2.12
2018-09-23T07:40:38.073Z,1.60
2018-09-23T07:43:05.237Z,1.45
2018-09-23T07:45:32.887Z,1.77
2018-09-23T07:48:00.214Z,2.37
2018-09-23T07:50:27.625Z,1.52
2018-09-23T07:52:54.724Z,1.98
2018-09-23T07:55:21.830Z,1.42
2018-09-23T07:57:48.966Z,1.77
2018-09-23T08:00:16.060Z,1.52
2018-09-23T08:02:43.435Z,2.00
2018-09-23T08:05:10.550Z,1.20
2018-09-23T08:07:38.134Z,1.60
2018-09-23T08:10:05.471Z,1.55
2018-09-23T08:12:33.871Z,1.62
2018-09-23T08:15:01.410Z,1.50
2018-09-23T08:17:28.483Z,2.00
2018-09-23T08:19:55.733Z,2.85
2018-09-23T08:22:23.011Z,2.40
2018-09-23T08:24:50.171Z,3.10
2018-09-23T08:27:28.359Z,2.15
2018-09-23T08:29:56.009Z,1.98
2018-09-23T08:32:23.721Z,1.77
2018-09-23T08:34:51.635Z,2.05
2018-09-23T08:37:18.835Z,2.70
2018-09-23T08:39:47.583Z,2.42
2018-09-23T08:42:14.908Z,2.00
2018-09-23T08:44:42.052Z,2.30
2018-09-23T08:47:09.275Z,2.90
2018-09-23T08:49:37.236Z,1.65
2018-09-23T08:52:10.490Z,1.65
2018-09-23T08:54:37.764Z,1.90
2018-09-23T08:57:05.313Z,2.00
2018-09-23T08:59:32.479Z,1.65
2018-09-23T09:02:01.271Z,1.95
2018-09-23T09:04:30.052Z,2.27
2018-09-23T09:06:57.510Z,1.50
2018-09-23T09:09:25.116Z,1.40
2018-09-23T09:11:58.501Z,2.90
2018-09-23T09:14:26.323Z,1.70
2018-09-23T09:16:54.396Z,1.65
2018-09-23T09:19:21.563Z,1.40
2018-09-23T09:21:49.935Z,1.70
2018-09-23T09:24:17.541Z,1.50
2018-09-23T09:26:44.715Z,1.75
2018-09-23T09:29:12.009Z,1.70
2018-09-23T09:31:39.241Z,1.80
2018-09-23T09:34:06.681Z,2.50
2018-09-23T09:36:33.910Z,2.50
2018-09-23T09:39:01.256Z,1.72
2018-09-23T09:41:28.599Z,2.30
2018-09-23T09:43:55.908Z,1.55
2018-09-23T09:46:23.012Z,1.40
2018-09-23T09:48:50.353Z,2.45
2018-09-23T09:51:19.052Z,1.45
2018-09-23T09:53:46.625Z,1.85
2018-09-23T09:56:15.113Z,2.70
2018-09-23T09:58:44.825Z,1.75
2018-09-23T10:01:12.192Z,1.85
2018-09-23T10:03:39.360Z,3.22
2018-09-23T10:06:06.539Z,3.20
2018-09-23T10:08:33.778Z,1.10
2018-09-23T10:11:00.950Z,3.40
2018-09-23T10:13:28.236Z,2.52
2018-09-23T10:15:56.415Z,1.82
2018-09-23T10:18:23.680Z,2.67
2018-09-23T10:20:50.964Z,1.85
2018-09-23T10:23:18.449Z,2.00
2018-09-23T10:28:43.093Z,2.20
2018-09-23T10:31:10.934Z,3.20
2018-09-23T10:33:38.257Z,3.20
2018-09-23T10:36:05.556Z,2.10
2018-09-23T10:38:34.330Z,2.70
2018-09-23T10:41:02.049Z,1.82
2018-09-23T10:43:31.156Z,1.30
2018-09-23T10:45:58.387Z,1.70
2018-09-23T10:48:25.591Z,1.70
2018-09-23T10:50:52.713Z,2.05
2018-09-23T10:53:19.861Z,2.58
2018-09-23T10:55:47.222Z,2.80
2018-09-23T10:58:14.958Z,1.52
2018-09-23T11:00:42.284Z,3.08
2018-09-23T11:03:09.458Z,1.70
2018-09-23T11:05:37.272Z,1.92
2018-09-23T11:08:04.580Z,1.75
2018-09-23T11:10:32.182Z,1.65
2018-09-23T11:13:01.734Z,2.20
2018-09-23T11:15:29.068Z,1.25
2018-09-23T11:17:56.296Z,1.20
2018-09-23T11:20:23.523Z,2.12
2018-09-23T11:22:51.284Z,1.95
2018-09-23T11:25:18.738Z,2.95
2018-09-23T11:27:46.067Z,2.17
2018-09-23T11:30:13.526Z,1.80
2018-09-23T11:32:40.643Z,1.47
2018-09-23T11:35:07.831Z,1.90
2018-09-23T11:37:35.064Z,2.33
2018-09-23T11:40:02.648Z,1.87
2018-09-23T11:42:29.776Z,1.45
2018-09-23T11:44:56.880Z,1.92
2018-09-23T11:47:24.117Z,2.12
2018-09-23T11:49:51.402Z,2.22
2018-09-23T11:52:18.560Z,1.50
2018-09-23T11:54:45.768Z,1.32
2018-09-23T11:57:12.953Z,1.72
2018-09-23T11:59:40.079Z,1.90
2018-09-23T12:02:07.289Z,1.85
2018-09-23T12:04:34.794Z,1.20
2018-09-23T12:07:02.028Z,1.85
2018-09-23T12:09:29.589Z,1.62
2018-09-23T12:11:56.986Z,2.00
2018-09-23T12:14:29.032Z,1.57
2018-09-23T12:16:56.729Z,1.62
2018-09-23T12:19:23.837Z,1.77
2018-09-23T12:21:51.055Z,1.10
2018-09-23T12:24:18.470Z,2.00
2018-09-23T12:26:45.643Z,1.62
2018-09-23T12:29:13.704Z,2.40
2018-09-23T12:31:40.833Z,1.25
2018-09-23T12:34:08.137Z,1.60
2018-09-23T12:36:35.265Z,1.80
2018-09-23T12:39:02.585Z,1.52
2018-09-23T12:41:29.676Z,2.20
2018-09-23T12:43:56.812Z,2.00
2018-09-23T12:46:24.240Z,1.40
2018-09-23T12:48:51.803Z,1.80
2018-09-23T12:51:18.911Z,1.50
2018-09-23T12:53:48.056Z,1.60
2018-09-23T12:56:15.240Z,1.35
2018-09-23T12:58:42.469Z,1.95
2018-09-23T13:01:09.632Z,2.22
2018-09-23T13:03:36.733Z,1.55
2018-09-23T13:06:03.943Z,1.42
2018-09-23T13:08:31.145Z,1.87
2018-09-23T13:10:58.959Z,1.77
2018-09-23T13:13:26.092Z,1.95
2018-09-23T13:15:53.264Z,1.95
2018-09-23T13:18:20.406Z,2.15
2018-09-23T13:20:47.514Z,1.17
2018-09-23T13:23:14.699Z,1.37
2018-09-23T13:25:41.822Z,1.62
2018-09-23T13:28:08.986Z,1.55
2018-09-23T13:30:36.390Z,1.27
2018-09-23T13:33:03.641Z,1.20
2018-09-23T13:35:30.714Z,1.60
2018-09-23T13:37:59.259Z,1.20
2018-09-23T13:40:26.374Z,1.37
2018-09-23T13:42:53.546Z,1.20
2018-09-23T13:45:20.705Z,1.65
2018-09-23T13:47:48.006Z,1.42
2018-09-23T13:50:15.166Z,1.60
2018-09-23T13:52:42.260Z,1.62
2018-09-23T13:55:09.392Z,1.20
2018-09-23T13:57:37.324Z,1.37
2018-09-23T14:00:04.411Z,1.27
2018-09-23T14:02:31.574Z,2.08
2018-09-23T14:04:58.889Z,1.52
2018-09-23T14:07:25.982Z,1.32
2018-09-23T14:09:53.198Z,1.85
2018-09-23T14:12:20.334Z,2.25
2018-09-23T14:14:47.423Z,1.37
2018-09-23T14:17:16.639Z,1.60
2018-09-23T14:19:44.223Z,2.10
2018-09-23T14:22:11.935Z,1.85
2018-09-23T14:24:39.193Z,1.37
2018-09-23T14:27:06.493Z,1.67
2018-09-23T14:29:34.863Z,1.25
2018-09-23T14:32:02.115Z,1.50
2018-09-23T14:34:30.875Z,1.32
2018-09-23T14:36:59.627Z,1.70
2018-09-23T14:39:27.714Z,0.98
2018-09-23T14:41:54.940Z,1.40
2018-09-23T14:44:22.637Z,1.50
2018-09-23T14:46:49.728Z,1.10
2018-09-23T14:49:16.921Z,1.45
2018-09-23T14:51:44.065Z,1.20
2018-09-23T14:54:11.434Z,1.27
2018-09-23T14:56:38.854Z,1.10
2018-09-23T14:59:05.986Z,1.30
2018-09-23T15:01:33.174Z,1.20
2018-09-23T15:04:01.704Z,1.72
2018-09-23T15:06:29.791Z,1.10
2018-09-23T15:08:57.578Z,1.20
2018-09-23T15:11:25.135Z,1.42
2018-09-23T15:13:52.328Z,1.40
2018-09-23T15:16:19.600Z,1.30
2018-09-23T15:18:47.104Z,1.70
2018-09-23T15:21:14.389Z,1.10
2018-09-23T15:23:41.555Z,1.15
2018-09-23T15:26:08.742Z,1.55
2018-09-23T15:28:35.965Z,0.98
2018-09-23T15:31:03.164Z,1.40
2018-09-23T15:33:30.480Z,1.20
2018-09-23T15:35:57.711Z,1.00
2018-09-23T15:38:24.893Z,1.00
2018-09-23T15:40:52.155Z,0.98
2018-09-23T15:43:19.232Z,1.40
2018-09-23T15:45:46.415Z,1.35
2018-09-23T15:48:13.772Z,1.50
2018-09-23T15:50:40.932Z,1.00
2018-09-23T15:53:08.305Z,1.70
2018-09-23T15:55:35.457Z,1.52
2018-09-23T15:58:02.726Z,1.35
2018-09-23T16:00:30.542Z,1.10
2018-09-23T16:02:58.235Z,1.50
2018-09-23T16:05:25.756Z,2.25
2018-09-23T16:07:53.482Z,4.05
2018-09-23T16:10:20.796Z,4.35
2018-09-23T16:12:47.951Z,4.03
2018-09-23T16:15:15.062Z,4.00
2018-09-23T16:17:42.508Z,5.53
2018-09-23T16:20:09.707Z,4.00
2018-09-23T16:23:40.243Z,5.45
2018-09-23T16:26:07.470Z,5.12
2018-09-23T16:28:34.667Z,3.87
2018-09-23T16:31:01.811Z,4.53
2018-09-23T16:33:28.990Z,3.52
2018-09-23T16:35:56.074Z,3.85
2018-09-23T16:38:23.303Z,3.62
2018-09-23T16:40:50.423Z,3.27
2018-09-23T16:43:17.589Z,2.98
2018-09-23T16:45:45.919Z,4.08
2018-09-23T16:48:13.457Z,4.72
2018-09-23T16:50:40.744Z,3.27
2018-09-23T16:53:07.854Z,3.30
2018-09-23T16:55:35.045Z,3.37
2018-09-23T16:58:02.268Z,2.08
2018-09-23T17:00:29.477Z,3.50
2018-09-23T17:02:58.310Z,2.85
2018-09-23T17:05:25.439Z,3.35
2018-09-23T17:07:52.925Z,3.75
2018-09-23T17:10:20.074Z,2.42
2018-09-23T17:12:47.666Z,3.58
2018-09-23T17:15:14.866Z,3.02
2018-09-23T17:17:42.119Z,2.87
2018-09-23T17:20:09.279Z,3.60
2018-09-23T17:22:36.721Z,3.60
2018-09-23T17:25:03.925Z,3.52
2018-09-23T17:27:31.086Z,3.25
2018-09-23T17:29:58.286Z,2.87
2018-09-23T17:32:25.560Z,3.37
2018-09-23T17:34:52.701Z,2.55
2018-09-23T17:37:20.386Z,2.85
2018-09-23T17:39:48.241Z,2.20
2018-09-23T17:42:15.406Z,1.90
2018-09-23T17:44:42.566Z,4.20
2018-09-23T17:47:09.703Z,3.37
2018-09-23T17:49:36.876Z,3.10
2018-09-23T17:52:04.071Z,2.47
2018-09-23T17:54:31.292Z,4.55
2018-09-23T17:56:59.262Z,3.15
2018-09-23T17:59:27.117Z,3.05
2018-09-23T18:01:54.407Z,2.95
2018-09-23T18:04:21.517Z,3.00
2018-09-23T18:06:49.749Z,2.60
2018-09-23T18:09:16.872Z,3.37
2018-09-23T18:11:44.175Z,2.10
2018-09-23T18:14:11.283Z,2.35
2018-09-23T18:16:38.426Z,1.67
2018-09-23T18:19:05.567Z,2.72
2018-09-23T18:21:32.804Z,2.77
2018-09-23T18:23:59.940Z,3.15
2018-09-23T18:26:27.107Z,2.80
2018-09-23T18:28:54.283Z,2.45
2018-09-23T18:31:21.460Z,3.33
2018-09-23T18:33:48.843Z,2.58
2018-09-23T18:36:16.469Z,3.47
2018-09-23T18:39:46.804Z,2.85
2018-09-23T18:42:14.021Z,3.65
2018-09-23T18:44:41.436Z,2.08
2018-09-23T18:47:08.701Z,2.08
2018-09-23T18:49:35.795Z,1.60
2018-09-23T18:52:03.532Z,2.22
2018-09-23T18:54:36.122Z,2.10
2018-09-23T18:57:03.576Z,2.20
2018-09-23T18:59:30.723Z,4.30
2018-09-23T19:01:58.353Z,3.15
2018-09-23T19:04:25.573Z,4.67
2018-09-23T19:06:52.756Z,2.72
2018-09-23T19:09:19.940Z,2.60
2018-09-23T19:11:47.591Z,2.92
2018-09-23T19:14:14.884Z,2.85
2018-09-23T19:16:42.016Z,2.90
2018-09-23T19:19:09.145Z,3.22
2018-09-23T19:21:36.574Z,3.00
2018-09-23T19:24:03.712Z,2.27
2018-09-23T19:26:30.920Z,3.12
2018-09-23T19:28:59.199Z,1.75
2018-09-23T19:31:26.474Z,2.62
2018-09-23T19:33:53.686Z,2.55
2018-09-23T19:36:21.101Z,2.05
2018-09-23T19:38:48.456Z,1.50
2018-09-23T19:41:15.583Z,1.90
2018-09-23T19:43:42.711Z,2.12
2018-09-23T19:46:09.877Z,2.30
2018-09-23T19:48:37.008Z,2.70
2018-09-23T19:51:04.310Z,2.35
2018-09-23T19:53:31.411Z,2.50
2018-09-23T19:55:59.498Z,3.15
2018-09-23T19:58:26.734Z,2.77
2018-09-23T20:00:54.510Z,2.55
2018-09-23T20:03:22.824Z,2.50
2018-09-23T20:05:50.555Z,2.20
2018-09-23T20:08:17.853Z,2.85
2018-09-23T20:10:45.061Z,2.85
2018-09-23T20:13:12.326Z,2.12
2018-09-23T20:15:39.544Z,1.90
2018-09-23T20:18:06.710Z,1.70
2018-09-23T20:20:33.952Z,3.50
2018-09-23T20:23:01.114Z,1.80
2018-09-23T20:25:28.653Z,2.02
2018-09-23T20:27:55.842Z,1.77
2018-09-23T20:30:23.001Z,2.70
2018-09-23T20:32:50.137Z,2.40
2018-09-23T20:35:17.224Z,2.42
2018-09-23T20:37:45.125Z,2.10
2018-09-23T20:40:12.626Z,2.47
2018-09-23T20:42:39.825Z,1.70
2018-09-23T20:45:07.033Z,2.87
2018-09-23T20:47:34.326Z,1.77
2018-09-23T20:50:01.581Z,1.70
2018-09-23T20:52:28.693Z,1.15
2018-09-23T20:54:55.976Z,1.77
2018-09-23T20:57:23.228Z,2.75
2018-09-23T20:59:50.482Z,2.33
2018-09-23T21:02:17.701Z,2.20
2018-09-23T21:04:45.087Z,1.92
2018-09-23T21:07:12.250Z,1.98
2018-09-23T21:09:39.516Z,1.95
2018-09-23T21:12:06.670Z,2.12
2018-09-23T21:14:34.092Z,1.82
2018-09-23T21:17:01.320Z,2.47
2018-09-23T21:19:28.620Z,3.02
2018-09-23T21:21:55.724Z,2.62
2018-09-23T21:24:22.857Z,2.08
2018-09-23T21:26:49.943Z,1.95
2018-09-23T21:29:17.135Z,2.00
2018-09-23T21:31:44.242Z,2.08
2018-09-23T21:34:12.276Z,1.70
2018-09-23T21:36:39.428Z,1.70
2018-09-23T21:39:07.523Z,2.20
2018-09-23T21:41:34.702Z,1.85
2018-09-23T21:44:01.798Z,2.02
2018-09-23T21:46:28.941Z,1.70
2018-09-23T21:48:56.084Z,2.20
2018-09-23T21:51:23.364Z,1.80
2018-09-23T21:53:50.521Z,1.95
2018-09-23T21:56:17.632Z,1.80
2018-09-23T21:58:44.774Z,1.70
2018-09-23T22:01:11.960Z,1.77
2018-09-23T22:03:39.103Z,1.75
2018-09-23T22:06:06.281Z,2.98
2018-09-23T22:08:33.487Z,1.72
2018-09-23T22:11:00.600Z,2.47
2018-09-23T22:13:27.758Z,1.60
2018-09-23T22:15:54.905Z,1.65
2018-09-23T22:18:22.071Z,1.50
2018-09-23T22:20:49.206Z,1.80
2018-09-23T22:23:16.311Z,1.75
2018-09-23T22:25:43.468Z,2.65
2018-09-23T22:28:10.632Z,2.17
2018-09-23T22:30:37.778Z,2.08
2018-09-23T22:33:04.940Z,2.45
2018-09-23T22:35:32.078Z,2.87
2018-09-23T22:37:59.529Z,2.08
2018-09-23T22:40:26.713Z,1.52
2018-09-23T22:42:53.804Z,2.05
2018-09-23T22:45:20.886Z,1.55
2018-09-23T22:47:48.039Z,1.90
2018-09-23T22:50:15.179Z,1.62
2018-09-23T22:52:42.316Z,2.33
2018-09-23T22:55:09.432Z,1.52
2018-09-23T22:57:36.992Z,1.87
2018-09-23T23:00:04.480Z,1.22
2018-09-23T23:02:31.623Z,1.00
2018-09-23T23:04:59.322Z,1.87
2018-09-23T23:07:26.470Z,1.55
2018-09-23T23:09:53.597Z,1.82
2018-09-23T23:12:20.750Z,2.00
2018-09-23T23:14:47.896Z,1.77
2018-09-23T23:17:15.201Z,2.02
2018-09-23T23:19:42.557Z,1.20
2018-09-23T23:22:09.722Z,1.70
2018-09-23T23:24:36.828Z,1.45
2018-09-23T23:27:03.948Z,1.82
2018-09-23T23:29:31.150Z,1.45
2018-09-23T23:31:58.270Z,2.27
2018-09-23T23:34:25.377Z,1.77
2018-09-23T23:36:52.518Z,2.30
2018-09-23T23:39:19.630Z,1.85
2018-09-23T23:41:46.780Z,1.85
2018-09-23T23:44:13.896Z,1.85
2018-09-23T23:46:41.030Z,2.17
2018-09-23T23:49:08.554Z,1.20
2018-09-23T23:51:35.695Z,2.12
2018-09-23T23:54:02.790Z,1.70
2018-09-23T23:56:29.999Z,1.62
2018-09-23T23:58:57.169Z,1.32
